createdAt,value
2018-09-09T00:03:20.380Z,2.33
2018-09-09T00:07:24.360Z,2.67
2018-09-09T00:11:27.946Z,2.80
2018-09-09T00:15:32.854Z,2.53
2018-09-09T00:19:36.609Z,2.77
2018-09-09T00:23:40.134Z,2.77
2018-09-09T00:27:43.772Z,2.80
2018-09-09T00:31:47.456Z,2.70
2018-09-09T00:35:52.019Z,2.70
2018-09-09T00:39:55.794Z,2.70
2018-09-09T00:43:59.488Z,2.77
2018-09-09T00:48:03.176Z,3.30
2018-09-09T00:52:15.256Z,3.20
2018-09-09T00:56:18.818Z,3.00
2018-09-09T01:00:27.807Z,2.87
2018-09-09T01:04:31.472Z,3.20
2018-09-09T01:08:36.181Z,3.27
2018-09-09T01:12:39.811Z,3.40
2018-09-09T01:16:43.293Z,3.60
2018-09-09T01:20:46.945Z,2.80
2018-09-09T01:24:52.654Z,3.23
2018-09-09T01:28:56.346Z,3.10
2018-09-09T01:32:59.883Z,3.20
2018-09-09T01:37:03.745Z,3.17
2018-09-09T01:41:07.613Z,2.90
2018-09-09T01:45:11.179Z,3.20
2018-09-09T01:49:14.690Z,3.37
2018-09-09T01:53:18.235Z,3.60
2018-09-09T01:57:22.034Z,2.87
2018-09-09T02:01:25.675Z,3.23
2018-09-09T02:05:29.203Z,3.60
2018-09-09T02:09:32.946Z,3.37
2018-09-09T02:13:36.586Z,3.10
2018-09-09T02:17:40.338Z,3.50
2018-09-09T02:21:43.885Z,3.40
2018-09-09T02:25:47.456Z,3.40
2018-09-09T02:29:51.182Z,3.13
2018-09-09T02:33:54.797Z,3.37
2018-09-09T02:37:58.653Z,3.00
2018-09-09T02:42:02.298Z,3.40
2018-09-09T02:46:06.089Z,3.10
2018-09-09T02:50:09.650Z,3.47
2018-09-09T02:54:15.342Z,3.33
2018-09-09T02:58:19.016Z,3.60
2018-09-09T03:02:22.560Z,3.23
2018-09-09T03:06:26.225Z,3.27
2018-09-09T03:10:29.831Z,3.80
2018-09-09T03:14:33.950Z,3.20
2018-09-09T03:18:37.726Z,3.07
2018-09-09T03:22:41.421Z,3.30
2018-09-09T03:26:45.953Z,3.43
2018-09-09T03:30:49.975Z,3.40
2018-09-09T03:34:53.755Z,3.70
2018-09-09T03:38:57.693Z,3.33
2018-09-09T03:43:03.740Z,3.87
2018-09-09T03:47:07.283Z,3.20
2018-09-09T03:51:12.306Z,3.43
2018-09-09T03:55:15.952Z,3.10
2018-09-09T03:59:20.075Z,3.53
2018-09-09T04:03:23.712Z,3.53
2018-09-09T04:07:27.708Z,3.13
2018-09-09T04:11:31.474Z,3.10
2018-09-09T04:15:36.149Z,3.20
2018-09-09T04:19:39.666Z,3.23
2018-09-09T04:23:43.376Z,3.40
2018-09-09T04:27:46.915Z,3.30
2018-09-09T04:31:50.512Z,3.23
2018-09-09T04:35:54.579Z,3.00
2018-09-09T04:39:58.266Z,3.13
2018-09-09T04:44:03.107Z,3.53
2018-09-09T04:48:06.768Z,3.53
2018-09-09T04:52:10.736Z,3.63
2018-09-09T04:56:14.450Z,3.20
2018-09-09T05:00:18.137Z,4.00
2018-09-09T05:04:21.946Z,3.33
2018-09-09T05:08:25.606Z,3.00
2018-09-09T05:12:29.523Z,3.53
2018-09-09T05:16:33.094Z,3.30
2018-09-09T05:20:36.962Z,3.40
2018-09-09T05:24:40.524Z,3.63
2018-09-09T05:28:44.494Z,3.47
2018-09-09T05:32:48.154Z,3.80
2018-09-09T05:36:53.161Z,3.57
2018-09-09T05:40:56.943Z,3.50
2018-09-09T05:45:01.355Z,3.90
2018-09-09T05:49:05.441Z,3.50
2018-09-09T05:53:09.043Z,3.37
2018-09-09T05:57:12.806Z,3.40
2018-09-09T06:01:17.412Z,3.37
2018-09-09T06:05:20.956Z,3.67
2018-09-09T06:09:24.760Z,3.60
2018-09-09T06:13:28.248Z,3.70
2018-09-09T06:17:32.330Z,3.67
2018-09-09T06:21:36.135Z,3.70
2018-09-09T06:25:39.866Z,3.43
2018-09-09T06:29:43.619Z,3.50
2018-09-09T06:33:47.638Z,3.90
2018-09-09T06:37:51.445Z,3.87
2018-09-09T06:41:55.065Z,4.00
2018-09-09T06:45:58.684Z,4.30
2018-09-09T06:50:02.398Z,4.13
2018-09-09T06:54:06.463Z,4.00
2018-09-09T06:58:10.220Z,4.50
2018-09-09T07:02:13.890Z,4.90
2018-09-09T07:06:17.554Z,5.30
2018-09-09T07:10:21.334Z,5.13
2018-09-09T07:14:25.248Z,4.93
2018-09-09T07:18:28.773Z,5.63
2018-09-09T07:22:32.376Z,5.53
2018-09-09T07:26:36.076Z,5.60
2018-09-09T07:30:39.781Z,6.65
2018-09-09T07:34:43.451Z,6.80
2018-09-09T07:38:47.111Z,7.00
2018-09-09T07:42:50.641Z,6.75
2018-09-09T07:46:54.270Z,6.70
2018-09-09T07:50:57.974Z,6.75
2018-09-09T07:55:01.603Z,8.00
2018-09-09T07:59:05.203Z,6.65
2018-09-09T08:03:08.894Z,6.55
2018-09-09T08:07:12.765Z,7.40
2018-09-09T08:11:16.374Z,6.58
2018-09-09T08:15:21.495Z,8.65
2018-09-09T08:19:25.983Z,7.83
2018-09-09T08:23:30.079Z,7.37
2018-09-09T08:27:34.253Z,7.45
2018-09-09T08:31:37.910Z,7.97
2018-09-09T08:35:42.638Z,9.43
2018-09-09T08:39:46.181Z,11.38
2018-09-09T08:43:49.817Z,10.13
2018-09-09T08:47:53.359Z,10.20
2018-09-09T08:51:57.204Z,9.65
2018-09-09T08:56:01.107Z,10.30
2018-09-09T09:00:04.810Z,9.58
2018-09-09T09:04:08.397Z,8.43
2018-09-09T09:08:12.067Z,8.93
2018-09-09T09:12:16.259Z,8.03
2018-09-09T09:16:20.036Z,9.35
2018-09-09T09:20:23.624Z,8.95
2018-09-09T09:24:27.282Z,7.78
2018-09-09T09:28:30.834Z,7.83
2018-09-09T09:32:34.514Z,8.35
2018-09-09T09:36:38.280Z,7.75
2018-09-09T09:40:41.798Z,7.75
2018-09-09T09:44:45.777Z,7.15
2018-09-09T09:48:49.720Z,7.55
2018-09-09T09:52:53.330Z,7.20
2018-09-09T09:56:56.950Z,7.12
2018-09-09T10:01:01.940Z,6.00
2018-09-09T10:05:05.500Z,6.22
2018-09-09T10:09:09.135Z,6.28
2018-09-09T10:13:12.797Z,5.97
2018-09-09T10:17:16.386Z,4.80
2018-09-09T10:21:19.979Z,5.00
2018-09-09T10:25:23.863Z,5.40
2018-09-09T10:29:27.451Z,4.53
2018-09-09T10:33:31.094Z,4.37
2018-09-09T10:37:34.786Z,4.90
2018-09-09T10:41:38.833Z,4.03
2018-09-09T10:45:42.752Z,4.03
2018-09-09T10:49:46.323Z,3.60
2018-09-09T10:53:49.926Z,3.40
2018-09-09T10:57:53.750Z,3.22
2018-09-09T11:01:57.332Z,3.10
2018-09-09T11:06:01.646Z,3.55
2018-09-09T11:10:05.266Z,3.35
2018-09-09T11:14:08.834Z,3.40
2018-09-09T11:18:12.706Z,2.72
2018-09-09T11:22:16.409Z,3.12
2018-09-09T11:26:21.057Z,3.10
2018-09-09T11:30:24.753Z,2.85
2018-09-09T11:34:28.432Z,2.60
2018-09-09T11:38:32.070Z,2.77
2018-09-09T11:42:35.784Z,2.80
2018-09-09T11:46:39.359Z,2.67
2018-09-09T11:50:42.827Z,2.80
2018-09-09T11:54:46.549Z,2.58
2018-09-09T11:58:50.252Z,2.15
2018-09-09T12:02:53.880Z,2.60
2018-09-09T12:06:57.745Z,2.47
2018-09-09T12:11:01.694Z,2.60
2018-09-09T12:15:06.844Z,2.92
2018-09-09T12:19:10.328Z,2.67
2018-09-09T12:23:34.144Z,2.30
2018-09-09T12:27:37.937Z,2.42
2018-09-09T12:31:41.625Z,2.70
2018-09-09T12:35:45.391Z,2.20
2018-09-09T12:39:49.149Z,2.60
2018-09-09T12:43:58.174Z,2.20
2018-09-09T12:48:07.010Z,2.00
2018-09-09T12:52:10.855Z,2.08
2018-09-09T12:56:15.956Z,1.98
2018-09-09T13:00:19.695Z,1.95
2018-09-09T13:04:23.694Z,2.55
2018-09-09T13:08:27.305Z,2.37
2018-09-09T13:13:34.204Z,2.45
2018-09-09T13:17:37.859Z,2.40
2018-09-09T13:21:41.536Z,2.10
2018-09-09T13:25:45.261Z,2.30
2018-09-09T13:29:48.779Z,2.10
2018-09-09T13:33:52.502Z,1.87
2018-09-09T13:37:56.428Z,2.30
2018-09-09T13:42:00.363Z,2.27
2018-09-09T13:46:03.965Z,2.40
2018-09-09T13:50:07.532Z,2.85
2018-09-09T13:54:11.155Z,2.62
2018-09-09T13:58:14.999Z,2.70
2018-09-09T14:02:18.570Z,2.22
2018-09-09T14:06:22.314Z,2.30
2018-09-09T14:10:25.904Z,2.10
2018-09-09T14:14:29.709Z,2.15
2018-09-09T14:18:33.347Z,2.60
2018-09-09T14:22:38.239Z,3.05
2018-09-09T14:26:41.810Z,2.58
2018-09-09T14:30:45.636Z,2.00
2018-09-09T14:34:49.345Z,2.00
2018-09-09T14:38:53.077Z,2.17
2018-09-09T14:42:57.868Z,2.70
2018-09-09T14:47:01.906Z,2.47
2018-09-09T14:51:05.448Z,2.70
2018-09-09T14:55:09.210Z,2.55
2018-09-09T14:59:13.259Z,2.52
2018-09-09T15:03:16.973Z,3.30
2018-09-09T15:07:20.576Z,3.02
2018-09-09T15:11:24.232Z,3.02
2018-09-09T15:15:27.976Z,2.85
2018-09-09T15:19:31.564Z,2.40
2018-09-09T15:23:35.415Z,2.90
2018-09-09T15:27:39.118Z,2.95
2018-09-09T15:31:42.715Z,2.80
2018-09-09T15:35:46.332Z,3.37
2018-09-09T15:39:50.128Z,2.83
2018-09-09T15:43:53.899Z,2.60
2018-09-09T15:47:57.527Z,2.70
2018-09-09T15:52:01.460Z,3.08
2018-09-09T15:56:05.054Z,3.45
2018-09-09T16:00:08.954Z,2.83
2018-09-09T16:04:12.673Z,2.50
2018-09-09T16:08:16.406Z,2.85
2018-09-09T16:12:19.999Z,3.67
2018-09-09T16:16:24.959Z,2.50
2018-09-09T16:20:28.772Z,2.65
2018-09-09T16:24:32.429Z,2.65
2018-09-09T16:28:36.002Z,3.05
2018-09-09T16:32:39.779Z,2.52
2018-09-09T16:36:44.497Z,2.52
2018-09-09T16:40:48.637Z,2.87
2018-09-09T16:44:53.217Z,2.22
2018-09-09T16:48:56.946Z,2.60
2018-09-09T16:53:00.774Z,2.45
2018-09-09T16:57:04.637Z,2.60
2018-09-09T17:02:37.257Z,2.42
2018-09-09T17:06:40.842Z,2.70
2018-09-09T17:10:44.437Z,2.70
2018-09-09T17:14:47.987Z,2.70
2018-09-09T17:18:52.756Z,2.30
2018-09-09T17:27:48.337Z,3.00
2018-09-09T17:32:16.872Z,2.65
2018-09-09T17:36:40.925Z,2.72
2018-09-09T17:45:37.798Z,2.70
2018-09-09T18:41:01.759Z,3.50
2018-09-09T18:54:11.163Z,3.30
2018-09-09T18:59:00.872Z,3.12
2018-09-09T19:03:34.567Z,3.20
2018-09-09T19:07:49.334Z,3.55
2018-09-09T19:12:36.467Z,3.52
2018-09-09T19:21:58.795Z,3.98
2018-09-09T20:20:26.275Z,4.80
2018-09-09T20:24:29.808Z,4.80
2018-09-09T20:28:35.374Z,4.70
2018-09-09T20:32:39.956Z,4.55
2018-09-09T20:36:43.858Z,4.62
2018-09-09T20:40:47.558Z,4.65
2018-09-09T20:44:51.222Z,5.03
2018-09-09T20:48:55.331Z,4.30
2018-09-09T20:52:58.923Z,4.58
2018-09-09T20:57:02.883Z,4.87
2018-09-09T21:01:06.725Z,4.50
2018-09-09T21:05:10.373Z,4.22
2018-09-09T21:09:14.395Z,4.92
2018-09-09T21:13:18.108Z,4.60
2018-09-09T21:17:21.678Z,4.97
2018-09-09T21:21:25.445Z,4.65
2018-09-09T21:25:29.073Z,5.33
2018-09-09T21:29:32.740Z,4.92
2018-09-09T21:33:36.644Z,5.17
2018-09-09T21:37:40.233Z,4.70
2018-09-09T21:41:43.687Z,4.40
2018-09-09T21:45:47.239Z,4.33
2018-09-09T21:49:50.941Z,5.00
2018-09-09T21:53:54.674Z,5.30
2018-09-09T21:57:58.110Z,4.87
2018-09-09T22:02:07.494Z,4.92
2018-09-09T22:06:10.983Z,5.17
2018-09-09T22:10:14.744Z,4.35
2018-09-09T22:14:18.286Z,5.35
2018-09-09T22:18:21.885Z,4.97
2018-09-09T22:22:25.331Z,4.70
2018-09-09T22:26:28.904Z,4.75
2018-09-09T22:30:32.491Z,4.95
2018-09-09T22:34:36.136Z,4.65
2018-09-09T22:38:39.702Z,4.60
2018-09-09T22:42:43.643Z,5.03
2018-09-09T22:46:47.109Z,5.50
2018-09-09T22:50:50.829Z,4.72
2018-09-09T22:54:54.467Z,4.53
2018-09-09T22:58:58.270Z,5.40
2018-09-09T23:03:01.878Z,4.62
2018-09-09T23:07:05.489Z,4.67
2018-09-09T23:11:09.125Z,5.12
2018-09-09T23:15:12.929Z,4.40
2018-09-09T23:19:16.562Z,5.20
2018-09-09T23:23:20.239Z,4.67
2018-09-09T23:27:23.817Z,5.00
2018-09-09T23:31:27.389Z,5.10
2018-09-09T23:35:31.077Z,5.47
2018-09-09T23:39:34.672Z,5.08
2018-09-09T23:43:38.252Z,4.53
2018-09-09T23:47:41.891Z,4.95
2018-09-09T23:51:45.478Z,5.07
2018-09-09T23:55:49.015Z,4.80
2018-09-09T23:59:52.565Z,4.83
